createdAt,value
2019-01-04T00:03:06.065Z,1.19
2019-01-04T00:08:10.044Z,1.19
2019-01-04T00:13:14.056Z,1.34
2019-01-04T00:18:18.118Z,1.44
2019-01-04T00:23:22.157Z,1.46
2019-01-04T00:28:26.255Z,1.40
2019-01-04T00:33:30.408Z,1.44
2019-01-04T00:38:34.363Z,1.49
2019-01-04T00:43:38.488Z,1.40
2019-01-04T00:48:42.440Z,1.44
2019-01-04T00:53:46.593Z,1.41
2019-01-04T00:59:40.617Z,1.20
2019-01-04T01:05:34.094Z,1.27
2019-01-04T01:11:14.040Z,1.12
2019-01-04T01:17:02.621Z,1.19
2019-01-04T01:23:08.716Z,1.33
2019-01-04T01:29:08.837Z,1.39
2019-01-04T01:34:50.627Z,1.16
2019-01-04T01:40:31.304Z,0.88
2019-01-04T01:46:18.283Z,0.91
2019-01-04T01:51:33.366Z,1.08
2019-01-04T01:56:37.687Z,1.15
2019-01-04T02:01:41.483Z,1.22
2019-01-04T02:06:45.486Z,1.25
2019-01-04T02:11:49.276Z,1.50
2019-01-04T02:16:53.091Z,1.53
2019-01-04T02:21:56.959Z,1.64
2019-01-04T02:27:00.989Z,1.60
2019-01-04T02:32:04.874Z,1.48
2019-01-04T02:37:08.703Z,1.40
2019-01-04T02:42:12.796Z,1.50
2019-01-04T02:47:16.828Z,1.55
2019-01-04T02:52:20.766Z,1.33
2019-01-04T02:57:24.554Z,1.41
2019-01-04T03:02:28.586Z,1.37
2019-01-04T03:07:32.601Z,1.04
2019-01-04T03:12:36.551Z,0.88
2019-01-04T03:17:40.466Z,1.02
2019-01-04T03:22:44.527Z,1.10
2019-01-04T03:27:48.502Z,1.09
2019-01-04T03:32:52.502Z,1.18
2019-01-04T03:37:56.309Z,1.45
2019-01-04T03:43:00.195Z,1.33
2019-01-04T03:48:05.779Z,1.34
2019-01-04T03:53:09.740Z,1.44
2019-01-04T03:58:13.862Z,1.40
2019-01-04T04:03:17.700Z,1.39
2019-01-04T04:08:21.623Z,1.34
2019-01-04T04:13:25.460Z,1.30
2019-01-04T04:18:29.539Z,1.14
2019-01-04T04:23:33.286Z,1.24
2019-01-04T04:28:37.269Z,1.08
2019-01-04T04:33:41.085Z,1.02
2019-01-04T04:38:45.117Z,1.15
2019-01-04T04:43:49.259Z,1.13
2019-01-04T04:48:53.165Z,1.20
2019-01-04T04:53:56.987Z,1.26
2019-01-04T04:59:00.844Z,1.10
2019-01-04T05:04:04.955Z,1.12
2019-01-04T05:09:08.806Z,1.15
2019-01-04T05:14:12.761Z,1.14
2019-01-04T05:19:16.661Z,1.11
2019-01-04T05:24:20.463Z,1.16
2019-01-04T05:29:24.365Z,1.15
2019-01-04T05:34:28.477Z,1.19
2019-01-04T05:39:32.428Z,1.17
2019-01-04T05:44:36.399Z,1.29
2019-01-04T05:49:40.308Z,1.25
2019-01-04T05:54:44.353Z,1.31
2019-01-04T05:59:48.105Z,1.31
2019-01-04T06:04:52.135Z,1.23
2019-01-04T06:09:56.097Z,1.23
2019-01-04T06:15:00.021Z,1.25
2019-01-04T06:20:04.252Z,1.23
2019-01-04T06:25:08.145Z,1.31
2019-01-04T06:30:12.173Z,1.23
2019-01-04T06:35:16.423Z,1.15
2019-01-04T06:40:20.291Z,1.27
2019-01-04T06:45:24.129Z,1.34
2019-01-04T06:50:28.058Z,1.34
2019-01-04T06:56:01.766Z,1.14
2019-01-04T07:01:05.655Z,1.25
2019-01-04T07:06:09.572Z,1.36
2019-01-04T07:11:13.409Z,1.33
2019-01-04T07:16:17.304Z,1.36
2019-01-04T07:21:21.077Z,1.35
2019-01-04T07:26:24.953Z,1.42
2019-01-04T07:31:28.801Z,1.50
2019-01-04T07:36:32.541Z,1.41
2019-01-04T07:41:36.395Z,1.49
2019-01-04T07:46:40.159Z,1.50
2019-01-04T07:51:44.032Z,1.50
2019-01-04T07:56:47.813Z,1.50
2019-01-04T08:01:51.595Z,1.53
2019-01-04T08:06:55.437Z,1.42
2019-01-04T08:11:59.382Z,1.41
2019-01-04T08:17:03.184Z,1.60
2019-01-04T08:22:07.383Z,1.53
2019-01-04T08:27:11.327Z,1.33
2019-01-04T08:32:15.326Z,1.19
2019-01-04T08:37:19.278Z,1.42
2019-01-04T08:42:23.189Z,1.33
2019-01-04T08:47:27.160Z,1.41
2019-01-04T08:52:31.054Z,1.56
2019-01-04T08:57:34.839Z,1.52
2019-01-04T09:02:38.667Z,1.39
2019-01-04T09:07:42.440Z,1.46
2019-01-04T09:12:46.316Z,1.42
2019-01-04T09:17:50.318Z,1.49
2019-01-04T09:22:54.137Z,1.65
2019-01-04T09:27:58.031Z,1.69
2019-01-04T09:33:01.854Z,1.73
2019-01-04T09:38:05.748Z,1.63
2019-01-04T09:43:09.659Z,1.57
2019-01-04T09:48:13.647Z,1.66
2019-01-04T09:53:17.540Z,1.65
2019-01-04T09:58:21.475Z,1.74
2019-01-04T10:03:25.273Z,1.86
2019-01-04T10:08:29.228Z,1.83
2019-01-04T10:13:33.146Z,1.87
2019-01-04T10:18:37.086Z,1.84
2019-01-04T10:23:40.946Z,1.95
2019-01-04T10:28:49.614Z,1.88
2019-01-04T10:33:53.386Z,1.92
2019-01-04T10:38:57.296Z,1.93
2019-01-04T10:44:01.094Z,2.01
2019-01-04T10:49:04.902Z,1.99
2019-01-04T10:54:08.905Z,2.04
2019-01-04T10:59:12.885Z,1.97
2019-01-04T11:04:16.648Z,2.06
2019-01-04T11:09:20.622Z,2.12
2019-01-04T11:14:24.402Z,2.04
2019-01-04T11:19:28.266Z,2.16
2019-01-04T11:25:07.584Z,2.20
2019-01-04T11:30:43.482Z,2.28
2019-01-04T11:36:49.878Z,2.30
2019-01-04T11:42:23.184Z,2.36
2019-01-04T11:47:56.394Z,2.33
2019-01-04T11:53:06.265Z,2.30
2019-01-04T11:58:10.043Z,2.21
2019-01-04T12:03:13.780Z,2.13
2019-01-04T12:08:17.553Z,2.10
2019-01-04T12:13:21.293Z,2.20
2019-01-04T12:18:25.084Z,2.22
2019-01-04T12:23:28.995Z,2.10
2019-01-04T12:28:32.805Z,2.12
2019-01-04T12:33:36.566Z,2.04
2019-01-04T12:38:40.346Z,1.95
2019-01-04T12:43:47.844Z,1.85
2019-01-04T12:48:49.858Z,1.82
2019-01-04T12:53:53.732Z,1.70
2019-01-04T12:58:57.504Z,1.81
2019-01-04T13:04:01.273Z,1.73
2019-01-04T13:09:06.715Z,1.77
2019-01-04T13:14:10.456Z,1.80
2019-01-04T13:19:14.363Z,1.64
2019-01-04T13:24:18.318Z,1.64
2019-01-04T13:29:22.081Z,1.66
2019-01-04T13:34:25.921Z,1.70
2019-01-04T13:39:29.702Z,1.74
2019-01-04T13:44:33.461Z,1.79
2019-01-04T13:49:37.327Z,1.89
2019-01-04T13:54:41.146Z,1.97
2019-01-04T13:59:44.992Z,2.09
2019-01-04T14:04:48.743Z,2.06
2019-01-04T14:09:52.558Z,2.07
2019-01-04T14:14:56.363Z,2.11
2019-01-04T14:20:00.215Z,2.15
2019-01-04T14:25:04.209Z,2.19
2019-01-04T14:30:09.801Z,2.20
2019-01-04T14:35:14.682Z,2.28
2019-01-04T14:40:18.499Z,2.31
2019-01-04T14:45:22.322Z,2.37
2019-01-04T14:50:26.188Z,2.34
2019-01-04T14:55:30.028Z,2.31
2019-01-04T15:00:33.766Z,2.29
2019-01-04T15:05:37.567Z,2.30
2019-01-04T15:10:41.304Z,2.22
2019-01-04T15:15:45.037Z,2.14
2019-01-04T15:20:48.821Z,2.08
2019-01-04T15:25:52.557Z,1.94
2019-01-04T15:30:56.337Z,1.80
2019-01-04T15:36:00.071Z,1.83
2019-01-04T15:41:03.806Z,1.81
2019-01-04T15:46:07.537Z,1.77
2019-01-04T15:51:11.318Z,1.80
2019-01-04T15:56:15.055Z,1.84
2019-01-04T16:01:18.883Z,1.80
2019-01-04T16:06:22.609Z,1.73
2019-01-04T16:11:26.409Z,1.74
2019-01-04T16:16:30.136Z,1.79
2019-01-04T16:21:33.857Z,1.75
2019-01-04T16:26:37.616Z,1.83
2019-01-04T16:31:41.330Z,1.88
2019-01-04T16:36:46.074Z,1.83
2019-01-04T16:41:49.870Z,1.88
2019-01-04T16:46:53.625Z,1.94
2019-01-04T16:51:57.421Z,1.92
2019-01-04T16:57:01.286Z,1.92
2019-01-04T17:02:05.460Z,2.01
2019-01-04T17:07:09.179Z,1.97
2019-01-04T17:12:12.897Z,2.02
2019-01-04T17:17:16.642Z,2.03
2019-01-04T17:22:20.404Z,2.09
2019-01-04T17:27:24.132Z,2.04
2019-01-04T17:32:27.984Z,2.17
2019-01-04T17:37:31.727Z,2.25
2019-01-04T17:42:35.454Z,2.31
2019-01-04T17:47:39.223Z,2.38
2019-01-04T17:52:42.964Z,2.36
2019-01-04T17:57:46.669Z,2.44
2019-01-04T18:02:50.472Z,2.44
2019-01-04T18:07:54.243Z,2.53
2019-01-04T18:12:58.031Z,2.54
2019-01-04T18:18:01.768Z,2.65
2019-01-04T18:23:05.641Z,2.55
2019-01-04T18:28:09.355Z,2.66
2019-01-04T18:33:13.126Z,2.70
2019-01-04T18:38:16.864Z,2.71
2019-01-04T18:43:20.579Z,2.71
2019-01-04T18:48:24.349Z,2.73
2019-01-04T18:53:28.093Z,2.75
2019-01-04T18:58:31.825Z,2.73
2019-01-04T19:03:35.571Z,2.81
2019-01-04T19:08:39.338Z,2.77
2019-01-04T19:13:43.074Z,2.83
2019-01-04T19:18:46.805Z,2.89
2019-01-04T19:23:50.561Z,2.87
2019-01-04T19:28:54.317Z,2.85
2019-01-04T19:33:58.070Z,2.92
2019-01-04T19:39:01.822Z,2.92
2019-01-04T19:44:05.546Z,3.01
2019-01-04T19:49:09.287Z,3.01
2019-01-04T19:54:13.146Z,3.02
2019-01-04T19:59:16.946Z,3.12
2019-01-04T20:04:20.662Z,3.15
2019-01-04T20:10:24.918Z,3.23
2019-01-04T20:16:21.866Z,3.15
2019-01-04T20:21:47.088Z,3.20
2019-01-04T20:27:12.517Z,3.18
2019-01-04T20:32:33.936Z,3.19
2019-01-04T20:38:06.040Z,3.21
2019-01-04T20:43:25.057Z,3.25
2019-01-04T20:48:41.658Z,3.19
2019-01-04T20:53:56.705Z,3.18
2019-01-04T20:59:14.253Z,3.17
2019-01-04T21:04:39.833Z,3.12
2019-01-04T21:09:53.851Z,3.17
2019-01-04T21:15:18.781Z,3.25
2019-01-04T21:20:41.555Z,3.16
2019-01-04T21:26:13.919Z,3.28
2019-01-04T21:31:39.922Z,3.29
2019-01-04T21:37:11.436Z,3.28
2019-01-04T21:42:32.459Z,3.30
2019-01-04T21:48:04.262Z,3.30
2019-01-04T21:53:25.970Z,3.27
2019-01-04T21:58:47.450Z,3.33
2019-01-04T22:04:08.723Z,3.36
2019-01-04T22:09:31.562Z,3.36
2019-01-04T22:14:50.629Z,3.40
2019-01-04T22:20:12.317Z,3.39
2019-01-04T22:25:37.936Z,3.43
2019-01-04T22:30:55.650Z,3.45
2019-01-04T22:36:20.671Z,3.45
2019-01-04T22:41:46.305Z,3.50
2019-01-04T22:47:05.577Z,3.47
2019-01-04T22:52:28.294Z,3.51
2019-01-04T22:57:49.743Z,3.53
2019-01-04T23:03:12.615Z,3.56
2019-01-04T23:08:40.256Z,3.53
2019-01-04T23:14:02.156Z,3.59
2019-01-04T23:19:31.042Z,3.60
2019-01-04T23:24:56.649Z,3.50
2019-01-04T23:30:37.833Z,3.59
2019-01-04T23:36:18.977Z,3.64
2019-01-04T23:41:47.853Z,3.66
2019-01-04T23:47:07.243Z,3.69
2019-01-04T23:52:33.133Z,3.71
2019-01-04T23:57:55.200Z,3.68
